Terminal Aerodrome Forecast
Issued by NWS

Home | Current Version | Previous Version | Text Only | Print | Product List | Glossary Off
Versions: 1 2 3 4 5 6 7 8 9 10 11 12 13 14 15 16 17 18 19 20 21 22 23 24 25 26 27 28 29 30 31 32 33 34 35 36 37 38 39 40 41

000
FTUS43 KGRB 241700
TAFRHI
TAF
KRHI 241736Z 2418/2518 VRB03KT P6SM BKN050
      TEMPO 2418/2422 SCT050
     FM242200 21004KT P6SM SCT050
     FM250900 16006KT P6SM SCT050 BKN100
     FM251200 17009KT P6SM SCT040 BKN090=

USA.gov is the U.S. government's official web portal to all federal, state and local government web resources and services.